Vagabond — FLAO — position and weather

sailwx.info

Track history (hours):
 
Tides and Currents Weather Stations Pressure Air Temp Water Temp Dewpoint Dewpoint Depression Visibility Wind Speed Wind Dir Waves Ship Positions

Vagabond

Ship's website: http://www.vagabond.fr/

Last reported at 2019-Jun-09 18:24 UTC. Time now 2019-Jul-22 13:49 UTC.
Position N 64°26' W 052°11'.
Warning: this ship's position is 42 days out of date.

Length 14 m.

Type: Pleasure craft. MMSI: 227640000.

Date/timePositionNaut miles runAvg speedWind from/ knotsBaromVisibWave heightAir tempDewpointWater temp
2019-Jun-09 18:24N 64°26' W 052°11'2 3.9
2019-Jun-09 18:00N 64°25' W 052°11'2 4.7
2019-Jun-09 17:30N 64°22' W 052°11'2 3.1
2019-Jun-09 17:00N 64°21' W 052°11'2 4.9
2019-Jun-09 16:30N 64°18' W 052°11'3 4.8
2019-Jun-09 15:58N 64°16' W 052°11'1 0.5
2019-Jun-09 14:43N 64°15' W 052°11'0 0.0
2019-Jun-09 14:28N 64°15' W 052°11'0 0.0
2019-Jun-09 13:47N 64°15' W 052°11'1 2.5
2019-Jun-09 13:30N 64°14' W 052°11'3 5.4
2019-Jun-09 13:00N 64°12' W 052°07'3 5.2
2019-Jun-09 12:30N 64°10' W 052°05'4 4.7
2019-Jun-09 11:45N 64°07' W 052°01'1 5.3
2019-Jun-09 11:30N 64°07' W 051°58'2 5.0
2019-Jun-09 11:00N 64°06' W 051°52'3 5.1
2019-Jun-09 10:30N 64°05' W 051°47'2 4.3
2019-Jun-09 10:00N 64°03' W 051°44'0 0.0
2019-Jun-08 23:38N 64°03' W 051°44'0 0.1
2019-Jun-08 23:27N 64°03' W 051°44'2 3.6
2019-Jun-08 23:00N 64°05' W 051°44'2 4.9
2019-Jun-08 22:30N 64°07' W 051°45'2 4.5
2019-Jun-08 22:00N 64°09' W 051°44'1 0.0
2019-Jun-07 17:25N 64°10' W 051°43'2 4.1
2019-Jun-07 17:00N 64°09' W 051°44'3 5.6
2019-Jun-07 16:30N 64°06' W 051°44'2 4.6
2019-Jun-07 15:58N 64°03' W 051°44'0 0.4
2019-Jun-07 15:30N 64°03' W 051°44'0 0.0
2019-Jun-07 15:00N 64°03' W 051°44'0 0.0
2019-Jun-07 14:30N 64°03' W 051°44'0 0.0
2019-Jun-07 14:00N 64°03' W 051°44'0 0.0
2019-Jun-07 13:30N 64°03' W 051°44'0 0.0
2019-Jun-07 13:00N 64°03' W 051°44'0 0.0
2019-Jun-07 12:27N 64°03' W 051°44'0 0.0
2019-Jun-07 11:57N 64°03' W 051°44'0 0.0
2019-Jun-07 11:30N 64°03' W 051°44'0 0.0
2019-Jun-06 21:39N 64°03' W 051°44'0 0.0
2019-Jun-06 20:30N 64°03' W 051°44'1 1.4
2019-Jun-06 19:57N 64°04' W 051°43'2 5.5
2019-Jun-06 19:30N 64°06' W 051°45'2 4.1
2019-Jun-06 19:00N 64°08' W 051°45'2 4.9
2019-Jun-06 18:30N 64°11' W 051°46'3 6.1
2019-Jun-06 18:00N 64°14' W 051°43'3 6.1
2019-Jun-06 17:30N 64°16' W 051°39'3 6.2
2019-Jun-06 17:00N 64°19' W 051°36'2 2.9
2019-Jun-06 16:28N 64°20' W 051°34'0 0.0
2019-Jun-06 15:58N 64°20' W 051°34'0 0.0
2019-Jun-06 15:07N 64°20' W 051°34'0 0.0
2019-Jun-06 14:46N 64°20' W 051°34'0 0.0
2019-Jun-06 14:25N 64°20' W 051°34'0 0.0
2019-Jun-06 13:55N 64°20' W 051°34'0 0.0
2019-Jun-06 13:25N 64°20' W 051°34'0 0.0
2019-Jun-06 12:58N 64°20' W 051°34'0 0.0
2019-Jun-06 12:28N 64°20' W 051°34'0 0.0
2019-Jun-06 11:55N 64°20' W 051°34'0 0.0
2019-Jun-06 11:28N 64°20' W 051°34'0 0.0
2019-Jun-06 10:58N 64°20' W 051°34'1 0.1
2019-Jun-05 23:53N 64°21' W 051°33'1 1.8
2019-Jun-05 23:26N 64°20' W 051°34'0 0.0
2019-Jun-05 22:59N 64°20' W 051°34'0 0.3
2019-Jun-05 22:30N 64°20' W 051°34'3 6.2
2019-Jun-05 22:00N 64°17' W 051°36'3 6.1
2019-Jun-05 21:30N 64°15' W 051°40'3 6.1
2019-Jun-05 21:00N 64°12' W 051°43'2 4.5
2019-Jun-05 20:29N 64°10' W 051°44'1 1.1
2019-Jun-05 19:59N 64°10' W 051°44'0 0.0
2019-Jun-05 19:29N 64°10' W 051°44'0 0.0
2019-Jun-05 18:59N 64°10' W 051°44'0 0.0
2019-Jun-05 18:29N 64°10' W 051°44'0 0.0
2019-Jun-05 17:59N 64°10' W 051°44'0 0.0
2019-Jun-05 17:29N 64°10' W 051°44'0 0.0
2019-Jun-05 16:59N 64°10' W 051°44'0 0.0
2019-Jun-05 16:29N 64°10' W 051°44'0 0.0
2019-Jun-05 15:59N 64°10' W 051°44'0 0.0
2019-Jun-05 15:29N 64°10' W 051°44'1 1.7
2019-Jun-05 15:00N 64°10' W 051°45'3 6.1
2019-Jun-05 14:30N 64°13' W 051°43'3 6.6
2019-Jun-05 14:00N 64°15' W 051°39'  
2019-Jun-02 00:00N 64°27' W 051°28'3 5.7
2019-Jun-01 23:30N 64°24' W 051°32'3 5.7
2019-Jun-01 23:00N 64°22' W 051°35'3 5.5
2019-Jun-01 22:30N 64°19' W 051°38'3 5.7
2019-Jun-01 22:00N 64°17' W 051°40'3 5.8
2019-Jun-01 21:30N 64°15' W 051°44'3 6.0
2019-Jun-01 21:00N 64°12' W 051°49'2 0.6
2019-Jun-01 18:19N 64°11' W 051°52'0 0.0
2019-Jun-01 14:12N 64°11' W 051°52'0 0.6
2019-Jun-01 14:01N 64°11' W 051°52'0 0.0
2019-Jun-01 12:47N 64°11' W 051°52'1 2.5
2019-Jun-01 12:30N 64°11' W 051°51'3 5.4
2019-Jun-01 12:00N 64°10' W 051°45'1 0.1
2019-Jun-01 00:58N 64°10' W 051°44'0 0.2
2019-Jun-01 00:28N 64°10' W 051°43'0 0.0
2019-May-31 23:58N 64°10' W 051°43'0 0.0
2019-May-30 22:31N 64°10' W 051°44'0 0.7
2019-May-30 22:30N 64°10' W 051°44'1 2.7
2019-May-30 22:00N 64°09' W 051°42'  
Track history (hours):
 
Tides and Currents Weather Stations Pressure Air Temp Water Temp Dewpoint Dewpoint Depression Visibility Wind Speed Wind Dir Waves Ship Positions

Vagabond

Ship's website: http://www.vagabond.fr/

Last reported at 2019-Jun-09 18:24 UTC. Time now 2019-Jul-22 13:49 UTC.
Position N 64°26' W 052°11'.
Warning: this ship's position is 42 days out of date.

Length 14 m.

Type: Pleasure craft. MMSI: 227640000.

Date/timePositionNaut miles runAvg speedWind from/ knotsBaromVisibWave heightAir tempDewpointWater temp
2019-Jun-09 18:24N 64°26' W 052°11'2 3.9
2019-Jun-09 18:00N 64°25' W 052°11'2 4.7
2019-Jun-09 17:30N 64°22' W 052°11'2 3.1
2019-Jun-09 17:00N 64°21' W 052°11'2 4.9
2019-Jun-09 16:30N 64°18' W 052°11'3 4.8
2019-Jun-09 15:58N 64°16' W 052°11'1 0.5
2019-Jun-09 14:43N 64°15' W 052°11'0 0.0
2019-Jun-09 14:28N 64°15' W 052°11'0 0.0
2019-Jun-09 13:47N 64°15' W 052°11'1 2.5
2019-Jun-09 13:30N 64°14' W 052°11'3 5.4
2019-Jun-09 13:00N 64°12' W 052°07'3 5.2
2019-Jun-09 12:30N 64°10' W 052°05'4 4.7
2019-Jun-09 11:45N 64°07' W 052°01'1 5.3
2019-Jun-09 11:30N 64°07' W 051°58'2 5.0
2019-Jun-09 11:00N 64°06' W 051°52'3 5.1
2019-Jun-09 10:30N 64°05' W 051°47'2 4.3
2019-Jun-09 10:00N 64°03' W 051°44'0 0.0
2019-Jun-08 23:38N 64°03' W 051°44'0 0.1
2019-Jun-08 23:27N 64°03' W 051°44'2 3.6
2019-Jun-08 23:00N 64°05' W 051°44'2 4.9
2019-Jun-08 22:30N 64°07' W 051°45'2 4.5
2019-Jun-08 22:00N 64°09' W 051°44'1 0.0
2019-Jun-07 17:25N 64°10' W 051°43'2 4.1
2019-Jun-07 17:00N 64°09' W 051°44'3 5.6
2019-Jun-07 16:30N 64°06' W 051°44'2 4.6
2019-Jun-07 15:58N 64°03' W 051°44'0 0.4
2019-Jun-07 15:30N 64°03' W 051°44'0 0.0
2019-Jun-07 15:00N 64°03' W 051°44'0 0.0
2019-Jun-07 14:30N 64°03' W 051°44'0 0.0
2019-Jun-07 14:00N 64°03' W 051°44'0 0.0
2019-Jun-07 13:30N 64°03' W 051°44'0 0.0
2019-Jun-07 13:00N 64°03' W 051°44'0 0.0
2019-Jun-07 12:27N 64°03' W 051°44'0 0.0
2019-Jun-07 11:57N 64°03' W 051°44'0 0.0
2019-Jun-07 11:30N 64°03' W 051°44'0 0.0
2019-Jun-06 21:39N 64°03' W 051°44'0 0.0
2019-Jun-06 20:30N 64°03' W 051°44'1 1.4
2019-Jun-06 19:57N 64°04' W 051°43'2 5.5
2019-Jun-06 19:30N 64°06' W 051°45'2 4.1
2019-Jun-06 19:00N 64°08' W 051°45'2 4.9
2019-Jun-06 18:30N 64°11' W 051°46'3 6.1
2019-Jun-06 18:00N 64°14' W 051°43'3 6.1
2019-Jun-06 17:30N 64°16' W 051°39'3 6.2
2019-Jun-06 17:00N 64°19' W 051°36'2 2.9
2019-Jun-06 16:28N 64°20' W 051°34'0 0.0
2019-Jun-06 15:58N 64°20' W 051°34'0 0.0
2019-Jun-06 15:07N 64°20' W 051°34'0 0.0
2019-Jun-06 14:46N 64°20' W 051°34'0 0.0
2019-Jun-06 14:25N 64°20' W 051°34'0 0.0
2019-Jun-06 13:55N 64°20' W 051°34'0 0.0
2019-Jun-06 13:25N 64°20' W 051°34'0 0.0
2019-Jun-06 12:58N 64°20' W 051°34'0 0.0
2019-Jun-06 12:28N 64°20' W 051°34'0 0.0
2019-Jun-06 11:55N 64°20' W 051°34'0 0.0
2019-Jun-06 11:28N 64°20' W 051°34'0 0.0
2019-Jun-06 10:58N 64°20' W 051°34'1 0.1
2019-Jun-05 23:53N 64°21' W 051°33'1 1.8
2019-Jun-05 23:26N 64°20' W 051°34'0 0.0
2019-Jun-05 22:59N 64°20' W 051°34'0 0.3
2019-Jun-05 22:30N 64°20' W 051°34'3 6.2
2019-Jun-05 22:00N 64°17' W 051°36'3 6.1
2019-Jun-05 21:30N 64°15' W 051°40'3 6.1
2019-Jun-05 21:00N 64°12' W 051°43'2 4.5
2019-Jun-05 20:29N 64°10' W 051°44'1 1.1
2019-Jun-05 19:59N 64°10' W 051°44'0 0.0
2019-Jun-05 19:29N 64°10' W 051°44'0 0.0
2019-Jun-05 18:59N 64°10' W 051°44'0 0.0
2019-Jun-05 18:29N 64°10' W 051°44'0 0.0
2019-Jun-05 17:59N 64°10' W 051°44'0 0.0
2019-Jun-05 17:29N 64°10' W 051°44'0 0.0
2019-Jun-05 16:59N 64°10' W 051°44'0 0.0
2019-Jun-05 16:29N 64°10' W 051°44'0 0.0
2019-Jun-05 15:59N 64°10' W 051°44'0 0.0
2019-Jun-05 15:29N 64°10' W 051°44'1 1.7
2019-Jun-05 15:00N 64°10' W 051°45'3 6.1
2019-Jun-05 14:30N 64°13' W 051°43'3 6.6
2019-Jun-05 14:00N 64°15' W 051°39'  
2019-Jun-02 00:00N 64°27' W 051°28'3 5.7
2019-Jun-01 23:30N 64°24' W 051°32'3 5.7
2019-Jun-01 23:00N 64°22' W 051°35'3 5.5
2019-Jun-01 22:30N 64°19' W 051°38'3 5.7
2019-Jun-01 22:00N 64°17' W 051°40'3 5.8
2019-Jun-01 21:30N 64°15' W 051°44'3 6.0
2019-Jun-01 21:00N 64°12' W 051°49'2 0.6
2019-Jun-01 18:19N 64°11' W 051°52'0 0.0
2019-Jun-01 14:12N 64°11' W 051°52'0 0.6
2019-Jun-01 14:01N 64°11' W 051°52'0 0.0
2019-Jun-01 12:47N 64°11' W 051°52'1 2.5
2019-Jun-01 12:30N 64°11' W 051°51'3 5.4
2019-Jun-01 12:00N 64°10' W 051°45'1 0.1
2019-Jun-01 00:58N 64°10' W 051°44'0 0.2
2019-Jun-01 00:28N 64°10' W 051°43'0 0.0
2019-May-31 23:58N 64°10' W 051°43'0 0.0
2019-May-30 22:31N 64°10' W 051°44'0 0.7
2019-May-30 22:30N 64°10' W 051°44'1 2.7
2019-May-30 22:00N 64°09' W 051°42'  

Dump ship's entire track history